Time;durP1;ratioP1;P1;durP2;ratioP2;P2;SDS_P1;SDS_P2;PMS_P1;PMS_P2;Temp;Humidity;BMP_temperature;BMP_pressure;BME280_temperature;BME280_humidity;BME280_pressure;Samples;Min_cycle;Max_cycle;Signal;HPM_P1;HPM_P2
2021/04/24 00:01:13;;;;;;;;;;;5.60;99.90;;;;;;10410008;28;19928;-69
2021/04/24 00:06:15;;;;;;;;;;;5.50;99.90;;;;;;10410431;28;19933;-69
2021/04/24 00:11:16;;;;;;;;;;;5.40;99.90;;;;;;10409431;28;19929;-69
2021/04/24 00:16:18;;;;;;;;;;;5.30;99.90;;;;;;10410056;28;19931;-69
2021/04/24 00:21:20;;;;;;;;;;;5.20;99.90;;;;;;10407917;28;19925;-69
2021/04/24 00:26:21;;;;;;;;;;;5.30;99.90;;;;;;10409595;28;20022;-69
2021/04/24 00:31:22;;;;;;;;;;;5.30;99.90;;;;;;10406989;28;20368;-68
2021/04/24 00:36:24;;;;;;;;;;;5.10;99.90;;;;;;10409157;28;20001;-69
2021/04/24 00:41:25;;;;;;;;;;;4.90;99.90;;;;;;10408092;28;19929;-69
2021/04/24 00:46:27;;;;;;;;;;;4.80;99.90;;;;;;10408937;28;19929;-69
2021/04/24 00:51:28;;;;;;;;;;;4.70;99.90;;;;;;10407772;28;20357;-69
2021/04/24 00:56:30;;;;;;;;;;;4.60;99.90;;;;;;10408376;28;19987;-70
2021/04/24 01:01:31;;;;;;;;;;;4.70;99.90;;;;;;10407515;28;19929;-69
2021/04/24 01:06:32;;;;;;;;;;;4.70;99.90;;;;;;10407844;28;19932;-69
2021/04/24 01:11:34;;;;;;;;;;;4.50;99.90;;;;;;10407557;28;20027;-69
2021/04/24 01:16:36;;;;;;;;;;;4.40;99.90;;;;;;10406850;28;19929;-69
2021/04/24 01:21:38;;;;;;;;;;;4.20;99.90;;;;;;10407764;28;20015;-70
2021/04/24 01:26:39;;;;;;;;;;;4.20;99.90;;;;;;10406690;28;20444;-69
2021/04/24 01:31:40;;;;;;;;;;;4.10;99.90;;;;;;10406443;28;20019;-69
2021/04/24 01:36:42;;;;;;;;;;;4.00;99.90;;;;;;10406774;28;19976;-69
2021/04/24 01:41:43;;;;;;;;;;;4.00;99.90;;;;;;10404971;28;19931;-69
2021/04/24 01:46:44;;;;;;;;;;;4.00;99.90;;;;;;10406148;28;19967;-69
2021/04/24 01:51:46;;;;;;;;;;;3.90;99.90;;;;;;10405943;28;19925;-69
2021/04/24 01:56:49;;;;;;;;;;;3.90;99.90;;;;;;10404237;28;20354;-70
2021/04/24 02:01:51;;;;;;;;;;;3.90;99.90;;;;;;10406928;28;19932;-70
2021/04/24 02:06:53;;;;;;;;;;;3.80;99.90;;;;;;10411946;28;19930;-69
2021/04/24 02:12:07;;;;;;;;;;;3.60;99.90;;;;;;10412611;28;19929;-70
2021/04/24 02:17:13;;;;;;;;;;;3.50;99.90;;;;;;10411365;28;19971;-69
2021/04/24 02:22:14;;;;;;;;;;;3.50;99.90;;;;;;10412019;28;19984;-69
2021/04/24 02:27:16;;;;;;;;;;;3.60;99.90;;;;;;10411733;28;20389;-69
2021/04/24 02:32:18;;;;;;;;;;;3.50;99.90;;;;;;10411234;28;19968;-69
2021/04/24 02:37:20;;;;;;;;;;;3.60;99.90;;;;;;10412659;28;19980;-69
2021/04/24 02:42:25;;;;;;;;;;;3.40;99.90;;;;;;10411546;28;20405;-69
2021/04/24 02:47:26;;;;;;;;;;;3.20;99.90;;;;;;10411894;28;19961;-69
2021/04/24 02:52:27;;;;;;;;;;;3.20;99.90;;;;;;10411639;28;19940;-69
2021/04/24 02:57:29;;;;;;;;;;;3.10;99.90;;;;;;10411643;28;19925;-69
2021/04/24 03:02:30;;;;;;;;;;;3.10;99.90;;;;;;10409816;28;19972;-69
2021/04/24 03:07:32;;;;;;;;;;;3.10;99.90;;;;;;10406306;28;19933;-69
2021/04/24 03:12:33;;;;;;;;;;;3.00;99.90;;;;;;10404906;28;20012;-69
2021/04/24 03:17:35;;;;;;;;;;;3.10;99.90;;;;;;10413591;28;19933;-69
2021/04/24 03:22:36;;;;;;;;;;;3.00;99.90;;;;;;10402306;28;20397;-69
2021/04/24 03:27:38;;;;;;;;;;;3.00;99.90;;;;;;10402239;28;20408;-69
2021/04/24 03:32:40;;;;;;;;;;;2.80;99.90;;;;;;10402599;28;20012;-69
2021/04/24 03:37:41;;;;;;;;;;;2.80;99.90;;;;;;10401935;28;19933;-69
2021/04/24 03:42:42;;;;;;;;;;;2.60;99.90;;;;;;10402209;28;19925;-69
2021/04/24 03:47:45;;;;;;;;;;;2.60;99.90;;;;;;10401043;28;19971;-69
2021/04/24 03:52:47;;;;;;;;;;;2.70;99.90;;;;;;10401994;28;19964;-69
2021/04/24 03:57:49;;;;;;;;;;;2.60;99.90;;;;;;10401608;28;20405;-69
2021/04/24 04:02:59;;;;;;;;;;;2.50;99.90;;;;;;10403502;28;19932;-69
2021/04/24 04:08:01;;;;;;;;;;;2.50;99.90;;;;;;10410321;28;19932;-69
2021/04/24 04:13:03;;;;;;;;;;;2.40;99.90;;;;;;10408470;28;19976;-69
2021/04/24 04:18:05;;;;;;;;;;;2.40;99.90;;;;;;10409015;28;20000;-69
2021/04/24 04:23:06;;;;;;;;;;;2.30;99.90;;;;;;10408177;28;19932;-69
2021/04/24 04:28:08;;;;;;;;;;;2.30;99.90;;;;;;10408930;28;20015;-69
2021/04/24 04:33:09;;;;;;;;;;;2.50;99.90;;;;;;10407500;28;19972;-69
2021/04/24 04:38:11;;;;;;;;;;;2.60;99.90;;;;;;10408688;28;20275;-69
2021/04/24 04:43:13;;;;;;;;;;;2.70;99.90;;;;;;10422752;28;20028;-69
2021/04/24 04:48:14;;;;;;;;;;;2.80;99.90;;;;;;10407539;28;19988;-69
2021/04/24 04:53:16;;;;;;;;;;;3.00;99.90;;;;;;10407532;28;20297;-69
2021/04/24 04:58:37;;;;;;;;;;;3.40;99.90;;;;;;10406709;28;20392;-69
2021/04/24 05:03:39;;;;;;;;;;;3.70;99.90;;;;;;10406791;28;20456;-69
2021/04/24 05:08:40;;;;;;;;;;;4.00;99.90;;;;;;10407308;28;19986;-69
2021/04/24 05:13:42;;;;;;;;;;;4.20;99.90;;;;;;10410370;28;19991;-69
2021/04/24 05:18:45;;;;;;;;;;;4.20;99.90;;;;;;10405599;28;19933;-69
2021/04/24 05:23:46;;;;;;;;;;;4.10;99.90;;;;;;10418388;28;20019;-69
2021/04/24 05:28:48;;;;;;;;;;;4.30;99.90;;;;;;10406606;28;20006;-70
2021/04/24 05:33:49;;;;;;;;;;;4.40;99.90;;;;;;10405333;28;19933;-69
2021/04/24 05:38:51;;;;;;;;;;;4.40;99.90;;;;;;10406434;28;20381;-69
2021/04/24 05:43:55;;;;;;;;;;;4.40;99.90;;;;;;10405254;28;19925;-69
2021/04/24 05:48:57;;;;;;;;;;;4.70;99.90;;;;;;10405800;28;20285;-69
2021/04/24 05:53:58;;;;;;;;;;;4.80;99.90;;;;;;10405118;28;20032;-70
2021/04/24 05:59:00;;;;;;;;;;;5.00;99.90;;;;;;10441490;28;20019;-70
2021/04/24 06:04:01;;;;;;;;;;;5.20;99.90;;;;;;10418077;28;20421;-69
2021/04/24 06:09:03;;;;;;;;;;;5.30;99.90;;;;;;10406128;28;20363;-69
2021/04/24 06:14:04;;;;;;;;;;;5.60;99.90;;;;;;10443283;28;19975;-70
2021/04/24 06:19:05;;;;;;;;;;;5.70;99.90;;;;;;10404691;28;20063;-70
2021/04/24 06:24:07;;;;;;;;;;;5.80;99.90;;;;;;10404406;28;19964;-70
2021/04/24 06:29:08;;;;;;;;;;;6.00;99.90;;;;;;10409760;28;20019;-70
2021/04/24 06:34:12;;;;;;;;;;;6.10;99.90;;;;;;10405814;28;19976;-70
2021/04/24 06:39:13;;;;;;;;;;;6.30;99.90;;;;;;10403035;28;19964;-70
2021/04/24 06:44:16;;;;;;;;;;;6.60;99.90;;;;;;10405696;28;19933;-70
2021/04/24 06:49:17;;;;;;;;;;;7.00;99.90;;;;;;10405401;28;20461;-70
2021/04/24 06:54:19;;;;;;;;;;;7.20;99.90;;;;;;10405465;28;20019;-70
2021/04/24 06:59:20;;;;;;;;;;;7.20;99.90;;;;;;10405523;28;20012;-70
2021/04/24 07:04:21;;;;;;;;;;;7.40;99.90;;;;;;10404687;28;20015;-70
2021/04/24 07:09:23;;;;;;;;;;;7.80;99.90;;;;;;10404125;28;19929;-70
2021/04/24 07:14:24;;;;;;;;;;;8.40;99.60;;;;;;10404987;28;20019;-70
2021/04/24 07:19:25;;;;;;;;;;;8.60;98.70;;;;;;10404944;28;20194;-70
2021/04/24 07:24:27;;;;;;;;;;;8.90;94.80;;;;;;10404441;28;19925;-70
2021/04/24 07:29:28;;;;;;;;;;;8.80;94.60;;;;;;10404422;28;20337;-70
2021/04/24 07:34:29;;;;;;;;;;;8.80;93.00;;;;;;10404610;28;20013;-70
2021/04/24 07:39:31;;;;;;;;;;;8.90;92.20;;;;;;10408401;28;20011;-70
2021/04/24 07:44:34;;;;;;;;;;;9.50;92.20;;;;;;10412355;28;19925;-70
2021/04/24 07:49:36;;;;;;;;;;;9.90;85.20;;;;;;10411921;28;19925;-70
2021/04/24 07:54:42;;;;;;;;;;;10.60;85.80;;;;;;10411724;28;19925;-70
2021/04/24 07:59:45;;;;;;;;;;;11.40;77.00;;;;;;10411838;28;19925;-71
2021/04/24 08:04:46;;;;;;;;;;;10.80;70.70;;;;;;10411985;28;20020;-70
2021/04/24 08:09:47;;;;;;;;;;;11.10;70.90;;;;;;10410079;28;20020;-70
2021/04/24 08:14:49;;;;;;;;;;;11.00;70.90;;;;;;10411081;28;20263;-70
2021/04/24 08:19:50;;;;;;;;;;;11.70;68.40;;;;;;10411081;28;19931;-70
2021/04/24 08:24:52;;;;;;;;;;;12.30;65.10;;;;;;10410517;28;20020;-71
2021/04/24 08:29:53;;;;;;;;;;;12.60;61.20;;;;;;10410808;28;20020;-71
2021/04/24 08:34:54;;;;;;;;;;;12.40;61.60;;;;;;10410540;28;20012;-70
2021/04/24 08:39:55;;;;;;;;;;;12.40;60.10;;;;;;10410030;28;19967;-70
2021/04/24 08:44:57;;;;;;;;;;;12.70;59.00;;;;;;10407763;28;20007;-70
2021/04/24 08:49:58;;;;;;;;;;;13.30;56.50;;;;;;10405935;28;20359;-71
2021/04/24 08:55:00;;;;;;;;;;;13.50;57.40;;;;;;10406943;28;19972;-70
2021/04/24 09:00:01;;;;;;;;;;;13.70;54.10;;;;;;10407315;28;19972;-70
2021/04/24 09:05:04;;;;;;;;;;;13.30;54.90;;;;;;10407007;28;20008;-70
2021/04/24 09:10:05;;;;;;;;;;;13.10;55.30;;;;;;10406652;28;20644;-70
2021/04/24 09:15:14;;;;;;;;;;;13.40;55.10;;;;;;10407329;28;19952;-70
2021/04/24 09:20:16;;;;;;;;;;;13.40;53.50;;;;;;10408019;28;20047;-70
2021/04/24 09:25:17;;;;;;;;;;;13.90;53.20;;;;;;10408187;28;19925;-70
2021/04/24 09:30:20;;;;;;;;;;;14.20;51.50;;;;;;10408211;28;20452;-70
2021/04/24 09:35:21;;;;;;;;;;;14.10;51.70;;;;;;10407976;28;20119;-71
2021/04/24 09:40:23;;;;;;;;;;;14.40;51.90;;;;;;10407817;28;19979;-70
2021/04/24 09:45:26;;;;;;;;;;;14.80;50.20;;;;;;10407386;28;20468;-71
2021/04/24 09:50:36;;;;;;;;;;;14.90;49.60;;;;;;10406658;28;19971;-71
2021/04/24 09:55:38;;;;;;;;;;;14.80;49.00;;;;;;10406596;28;19925;-70
2021/04/24 10:00:39;;;;;;;;;;;14.40;48.70;;;;;;10405977;28;19971;-70
2021/04/24 10:05:40;;;;;;;;;;;13.90;49.00;;;;;;10405662;28;20444;-70
2021/04/24 10:10:43;;;;;;;;;;;14.60;48.80;;;;;;10406334;28;20216;-71
2021/04/24 10:15:46;;;;;;;;;;;15.00;47.30;;;;;;10406374;28;19926;-70
2021/04/24 10:20:47;;;;;;;;;;;15.00;48.20;;;;;;10422723;28;20019;-71
2021/04/24 10:25:49;;;;;;;;;;;15.20;46.50;;;;;;10436072;28;20628;-70
2021/04/24 10:30:50;;;;;;;;;;;15.40;47.50;;;;;;10405189;28;19964;-70
2021/04/24 10:35:52;;;;;;;;;;;15.30;48.40;;;;;;10404166;28;20010;-71
2021/04/24 10:40:53;;;;;;;;;;;15.10;48.90;;;;;;10404497;28;20079;-71
2021/04/24 10:45:54;;;;;;;;;;;14.80;47.40;;;;;;10413872;28;20281;-71
2021/04/24 10:50:56;;;;;;;;;;;14.60;48.30;;;;;;10403673;28;20037;-71
2021/04/24 10:55:58;;;;;;;;;;;14.90;47.70;;;;;;10414819;28;19925;-71
2021/04/24 11:01:00;;;;;;;;;;;14.80;48.10;;;;;;10403660;28;20023;-70
2021/04/24 11:06:14;;;;;;;;;;;14.70;48.90;;;;;;10420224;28;20398;-70
2021/04/24 11:11:16;;;;;;;;;;;14.30;49.60;;;;;;10433037;28;19945;-70
2021/04/24 11:16:18;;;;;;;;;;;14.00;49.70;;;;;;10439457;28;20044;-70
2021/04/24 11:21:23;;;;;;;;;;;14.10;49.40;;;;;;10440277;28;19962;-71
2021/04/24 11:26:45;;;;;;;;;;;14.70;49.00;;;;;;10410216;28;20433;-70
2021/04/24 11:31:54;;;;;;;;;;;14.70;47.80;;;;;;10411802;28;20385;-70
2021/04/24 11:37:14;;;;;;;;;;;14.40;49.50;;;;;;10411594;28;19925;-70
2021/04/24 11:42:28;;;;;;;;;;;14.70;50.30;;;;;;10410901;28;20393;-70
2021/04/24 11:47:39;;;;;;;;;;;14.60;49.50;;;;;;10410815;28;19979;-70
2021/04/24 11:52:50;;;;;;;;;;;14.60;49.80;;;;;;10410872;28;19940;-70
2021/04/24 11:58:02;;;;;;;;;;;14.60;50.20;;;;;;10409980;28;20048;-70
2021/04/24 12:03:03;;;;;;;;;;;14.40;48.90;;;;;;10410558;28;20024;-70
2021/04/24 12:08:05;;;;;;;;;;;14.50;48.60;;;;;;10409941;28;19928;-70
2021/04/24 12:13:07;;;;;;;;;;;15.10;49.70;;;;;;10410521;28;20002;-70
2021/04/24 12:18:09;;;;;;;;;;;15.10;48.70;;;;;;10409837;28;20016;-70
2021/04/24 12:23:11;;;;;;;;;;;15.50;48.60;;;;;;10409065;28;20007;-70
2021/04/24 12:28:13;;;;;;;;;;;15.80;48.60;;;;;;10409085;28;20024;-70
2021/04/24 12:33:15;;;;;;;;;;;15.40;47.00;;;;;;10409818;28;19929;-70
2021/04/24 12:38:22;;;;;;;;;;;15.10;49.20;;;;;;10408955;28;20644;-70
2021/04/24 12:43:23;;;;;;;;;;;15.40;49.50;;;;;;10408942;28;20023;-70
2021/04/24 12:48:34;;;;;;;;;;;15.90;47.40;;;;;;10445877;28;19995;-70
2021/04/24 12:53:44;;;;;;;;;;;15.80;47.40;;;;;;10437229;28;20352;-70
2021/04/24 12:58:49;;;;;;;;;;;16.10;48.10;;;;;;10408742;28;19925;-70
2021/04/24 13:03:51;;;;;;;;;;;16.30;47.20;;;;;;10408046;28;20007;-70
2021/04/24 13:09:07;;;;;;;;;;;16.30;47.20;;;;;;10419376;28;19929;-70
2021/04/24 13:14:12;;;;;;;;;;;16.00;47.10;;;;;;10416041;28;20024;-70
2021/04/24 13:19:14;;;;;;;;;;;15.80;46.30;;;;;;10436273;28;19924;-70
2021/04/24 13:24:16;;;;;;;;;;;15.80;47.20;;;;;;10433215;28;20308;-71
2021/04/24 13:29:26;;;;;;;;;;;15.70;47.90;;;;;;10405229;28;20464;-71
2021/04/24 13:34:28;;;;;;;;;;;15.70;48.30;;;;;;10431438;28;20331;-63
2021/04/24 13:39:30;;;;;;;;;;;15.50;47.10;;;;;;10409403;28;20598;-62
2021/04/24 13:44:32;;;;;;;;;;;15.50;46.90;;;;;;10403260;28;19960;-62
2021/04/24 13:49:40;;;;;;;;;;;15.80;47.50;;;;;;10404626;28;20017;-62
2021/04/24 13:54:43;;;;;;;;;;;16.40;46.10;;;;;;10434361;28;19925;-62
2021/04/24 13:59:45;;;;;;;;;;;16.60;46.10;;;;;;10401902;28;19925;-62
2021/04/24 14:04:46;;;;;;;;;;;16.80;45.40;;;;;;10410648;28;19931;-62
2021/04/24 14:09:48;;;;;;;;;;;16.90;45.20;;;;;;10400195;28;20478;-62
2021/04/24 14:14:50;;;;;;;;;;;16.70;45.40;;;;;;10398960;28;19936;-62
2021/04/24 14:19:51;;;;;;;;;;;16.20;45.80;;;;;;10405609;28;19929;-61
2021/04/24 14:24:53;;;;;;;;;;;16.10;46.40;;;;;;10404011;28;19940;-62
2021/04/24 14:29:54;;;;;;;;;;;16.40;45.70;;;;;;10404458;28;19925;-62
2021/04/24 14:34:55;;;;;;;;;;;16.80;46.00;;;;;;10405340;28;19925;-62
2021/04/24 14:39:57;;;;;;;;;;;17.10;45.80;;;;;;10404658;28;19972;-62
2021/04/24 14:44:58;;;;;;;;;;;17.10;45.70;;;;;;10399585;28;19929;-62
2021/04/24 14:50:00;;;;;;;;;;;17.00;45.50;;;;;;10402824;28;20012;-63
2021/04/24 14:55:01;;;;;;;;;;;16.90;46.60;;;;;;10402792;28;19925;-62
2021/04/24 15:00:06;;;;;;;;;;;16.90;44.50;;;;;;10399447;28;19941;-62
2021/04/24 15:05:08;;;;;;;;;;;16.70;45.70;;;;;;10398379;28;20365;-63
2021/04/24 15:10:10;;;;;;;;;;;16.40;45.50;;;;;;10391373;28;19925;-63
2021/04/24 15:15:12;;;;;;;;;;;16.00;45.50;;;;;;10401040;28;20532;-62
2021/04/24 15:20:14;;;;;;;;;;;16.30;46.10;;;;;;10401227;28;19976;-62
2021/04/24 15:25:16;;;;;;;;;;;16.50;45.20;;;;;;10403866;28;19935;-62
2021/04/24 15:30:18;;;;;;;;;;;16.60;44.60;;;;;;10404059;28;20281;-62
2021/04/24 15:35:19;;;;;;;;;;;16.40;44.80;;;;;;10403993;28;19929;-62
2021/04/24 15:40:20;;;;;;;;;;;16.30;44.60;;;;;;10402333;28;19925;-62
2021/04/24 15:45:22;;;;;;;;;;;16.70;44.60;;;;;;10402412;28;19987;-62
2021/04/24 15:50:25;;;;;;;;;;;16.80;44.40;;;;;;10402715;28;20020;-63
2021/04/24 15:55:27;;;;;;;;;;;16.80;43.60;;;;;;10403559;28;19940;-62
2021/04/24 16:00:29;;;;;;;;;;;16.90;44.40;;;;;;10406983;28;19960;-62
2021/04/24 16:05:30;;;;;;;;;;;16.90;43.90;;;;;;10410499;28;19925;-63
2021/04/24 16:10:32;;;;;;;;;;;16.90;44.30;;;;;;10410611;28;20400;-62
2021/04/24 16:15:33;;;;;;;;;;;16.90;43.50;;;;;;10410472;28;19965;-62
2021/04/24 16:20:34;;;;;;;;;;;17.00;44.10;;;;;;10410583;28;19929;-62
2021/04/24 16:25:36;;;;;;;;;;;16.80;42.80;;;;;;10405502;28;19925;-62
2021/04/24 16:30:37;;;;;;;;;;;16.80;42.90;;;;;;10395143;28;19925;-62
2021/04/24 16:35:39;;;;;;;;;;;17.00;43.00;;;;;;10407827;28;19925;-62
2021/04/24 16:40:40;;;;;;;;;;;16.90;41.90;;;;;;10407324;28;20425;-62
2021/04/24 16:45:42;;;;;;;;;;;16.80;42.90;;;;;;10406178;28;19932;-62
2021/04/24 16:50:43;;;;;;;;;;;16.90;42.80;;;;;;10408746;28;19952;-63
2021/04/24 16:55:44;;;;;;;;;;;16.80;42.30;;;;;;10422694;28;19961;-62
2021/04/24 17:00:46;;;;;;;;;;;16.70;42.00;;;;;;10404690;28;19932;-62
2021/04/24 17:05:47;;;;;;;;;;;16.50;42.30;;;;;;10406040;28;19925;-62
2021/04/24 17:10:49;;;;;;;;;;;16.50;41.80;;;;;;10406999;28;19929;-62
2021/04/24 17:15:50;;;;;;;;;;;16.50;41.20;;;;;;10406297;28;19926;-62
2021/04/24 17:20:51;;;;;;;;;;;16.40;41.10;;;;;;10405179;28;20020;-62
2021/04/24 17:25:53;;;;;;;;;;;16.30;40.50;;;;;;10394207;28;20060;-62
2021/04/24 17:30:54;;;;;;;;;;;16.00;41.00;;;;;;10404755;28;19943;-62
2021/04/24 17:35:56;;;;;;;;;;;15.80;41.20;;;;;;10403617;28;19987;-62
2021/04/24 17:40:58;;;;;;;;;;;15.60;40.70;;;;;;10389433;28;19933;-63
2021/04/24 17:46:00;;;;;;;;;;;15.50;41.20;;;;;;10404382;28;19925;-62
2021/04/24 17:51:02;;;;;;;;;;;15.10;41.70;;;;;;10403709;28;20352;-62
2021/04/24 17:56:04;;;;;;;;;;;14.80;42.30;;;;;;10397010;28;20008;-62
2021/04/24 18:01:06;;;;;;;;;;;14.70;43.20;;;;;;10403913;28;20393;-62
2021/04/24 18:06:07;;;;;;;;;;;14.50;43.60;;;;;;10404118;28;20329;-62
2021/04/24 18:11:08;;;;;;;;;;;14.30;44.10;;;;;;10403919;28;20040;-62
2021/04/24 18:16:10;;;;;;;;;;;13.90;45.50;;;;;;10404096;28;19936;-63
2021/04/24 18:21:13;;;;;;;;;;;13.60;45.20;;;;;;10402643;28;20024;-71
2021/04/24 18:26:15;;;;;;;;;;;13.40;46.00;;;;;;10396031;28;19971;-71
2021/04/24 18:31:17;;;;;;;;;;;13.20;46.70;;;;;;10403122;28;19925;-72
2021/04/24 18:36:21;;;;;;;;;;;12.90;47.40;;;;;;10403648;28;19936;-72
2021/04/24 18:41:24;;;;;;;;;;;12.70;47.80;;;;;;10402027;28;19940;-72
2021/04/24 18:46:26;;;;;;;;;;;12.40;48.60;;;;;;10404920;28;19971;-72
2021/04/24 18:51:27;;;;;;;;;;;12.20;49.00;;;;;;10403659;28;20352;-72
2021/04/24 18:56:28;;;;;;;;;;;12.10;49.30;;;;;;10403398;28;20394;-71
2021/04/24 19:01:30;;;;;;;;;;;11.90;49.50;;;;;;10404092;28;19925;-73
2021/04/24 19:06:31;;;;;;;;;;;11.80;50.10;;;;;;10403030;28;19932;-72
2021/04/24 19:11:32;;;;;;;;;;;11.60;49.90;;;;;;10402175;28;20492;-71
2021/04/24 19:16:35;;;;;;;;;;;11.50;50.40;;;;;;10404219;28;19925;-71
2021/04/24 19:21:36;;;;;;;;;;;11.30;50.60;;;;;;10403157;28;19925;-71
2021/04/24 19:26:38;;;;;;;;;;;11.30;51.30;;;;;;10403267;28;20308;-71
2021/04/24 19:31:41;;;;;;;;;;;11.10;51.50;;;;;;10403322;28;20297;-71
2021/04/24 19:36:43;;;;;;;;;;;11.00;52.00;;;;;;10409885;28;19936;-71
2021/04/24 19:41:44;;;;;;;;;;;10.90;52.70;;;;;;10411284;28;20012;-71
2021/04/24 19:46:45;;;;;;;;;;;10.80;52.90;;;;;;10411056;28;20326;-71
2021/04/24 19:51:46;;;;;;;;;;;10.60;53.80;;;;;;10409555;28;20417;-71
2021/04/24 19:56:48;;;;;;;;;;;10.50;54.20;;;;;;10410420;28;19931;-71
2021/04/24 20:01:50;;;;;;;;;;;10.30;54.90;;;;;;10410534;28;20411;-71
2021/04/24 20:06:52;;;;;;;;;;;10.10;55.10;;;;;;10408843;28;19968;-71
2021/04/24 20:11:53;;;;;;;;;;;10.10;55.30;;;;;;10410276;28;19973;-71
2021/04/24 20:16:55;;;;;;;;;;;10.00;55.60;;;;;;10409965;28;19925;-71
2021/04/24 20:21:56;;;;;;;;;;;9.90;56.10;;;;;;10409875;28;20381;-71
2021/04/24 20:26:58;;;;;;;;;;;9.80;56.60;;;;;;10410243;28;20012;-71
2021/04/24 20:31:59;;;;;;;;;;;9.70;56.90;;;;;;10409688;28;19929;-71
2021/04/24 20:37:00;;;;;;;;;;;9.60;57.10;;;;;;10409515;28;19929;-72
2021/04/24 20:42:02;;;;;;;;;;;9.60;57.60;;;;;;10409395;28;20020;-71
2021/04/24 20:47:03;;;;;;;;;;;9.60;57.60;;;;;;10408555;28;19929;-71
2021/04/24 20:52:05;;;;;;;;;;;9.50;58.00;;;;;;10408785;28;19931;-71
2021/04/24 20:57:06;;;;;;;;;;;9.50;58.20;;;;;;10408959;28;19925;-71
2021/04/24 21:02:07;;;;;;;;;;;9.40;58.80;;;;;;10409711;28;19968;-71
2021/04/24 21:07:08;;;;;;;;;;;9.40;59.30;;;;;;10406871;28;19925;-72
2021/04/24 21:12:10;;;;;;;;;;;9.30;59.40;;;;;;10409192;28;19965;-72
2021/04/24 21:17:11;;;;;;;;;;;9.30;60.20;;;;;;10407819;28;20016;-71
2021/04/24 21:22:12;;;;;;;;;;;9.20;60.20;;;;;;10408628;28;19976;-72
2021/04/24 21:27:14;;;;;;;;;;;9.10;60.70;;;;;;10407461;28;19929;-71
2021/04/24 21:32:15;;;;;;;;;;;9.00;60.90;;;;;;10407790;28;19925;-71
2021/04/24 21:37:17;;;;;;;;;;;8.80;62.60;;;;;;10407350;28;20372;-72
2021/04/24 21:42:18;;;;;;;;;;;8.70;62.10;;;;;;10407321;28;20083;-71
2021/04/24 21:47:19;;;;;;;;;;;8.50;63.00;;;;;;10406929;28;20007;-71
2021/04/24 21:52:21;;;;;;;;;;;8.30;64.10;;;;;;10406764;28;19925;-71
2021/04/24 21:57:22;;;;;;;;;;;8.20;65.00;;;;;;10407034;28;20003;-72
2021/04/24 22:02:23;;;;;;;;;;;8.20;65.40;;;;;;10413701;28;19939;-72
2021/04/24 22:07:25;;;;;;;;;;;8.10;66.70;;;;;;10404832;28;19929;-72
2021/04/24 22:12:26;;;;;;;;;;;8.00;67.90;;;;;;10413041;28;20004;-72
2021/04/24 22:17:27;;;;;;;;;;;8.00;68.80;;;;;;10405259;28;19929;-72
2021/04/24 22:22:28;;;;;;;;;;;8.00;69.70;;;;;;10402905;28;19929;-71
2021/04/24 22:27:30;;;;;;;;;;;8.00;70.20;;;;;;10404797;28;19959;-71
2021/04/24 22:32:31;;;;;;;;;;;7.90;71.90;;;;;;10425019;28;20387;-71
2021/04/24 22:37:32;;;;;;;;;;;7.90;73.00;;;;;;10404774;28;19925;-71
2021/04/24 22:42:34;;;;;;;;;;;7.80;73.20;;;;;;10408080;28;19929;-71
2021/04/24 22:47:35;;;;;;;;;;;7.80;73.90;;;;;;10403806;28;19935;-71
2021/04/24 22:52:36;;;;;;;;;;;7.60;77.00;;;;;;10412096;28;19979;-70
2021/04/24 22:57:38;;;;;;;;;;;7.30;80.70;;;;;;10421569;28;20400;-70
2021/04/24 23:02:39;;;;;;;;;;;7.20;85.30;;;;;;10402975;28;20031;-71
2021/04/24 23:07:41;;;;;;;;;;;7.10;87.90;;;;;;10415825;28;20023;-71
2021/04/24 23:12:43;;;;;;;;;;;7.10;90.80;;;;;;10419711;28;20048;-71
2021/04/24 23:17:45;;;;;;;;;;;7.00;92.30;;;;;;10402669;28;19961;-71
2021/04/24 23:22:47;;;;;;;;;;;7.10;93.50;;;;;;10401818;28;19929;-71
2021/04/24 23:27:49;;;;;;;;;;;7.00;94.60;;;;;;10401738;28;20012;-71
2021/04/24 23:32:50;;;;;;;;;;;6.90;96.90;;;;;;10403338;28;20014;-71
2021/04/24 23:37:52;;;;;;;;;;;6.70;97.60;;;;;;10386668;28;20029;-71
2021/04/24 23:42:53;;;;;;;;;;;6.50;99.90;;;;;;10400894;28;19929;-71
2021/04/24 23:47:54;;;;;;;;;;;6.40;99.90;;;;;;10401860;28;20055;-71
2021/04/24 23:52:55;;;;;;;;;;;6.30;99.90;;;;;;10401991;28;20356;-71
2021/04/24 23:57:57;;;;;;;;;;;6.10;99.90;;;;;;10419883;28;19964;-71
